createdAt,value
2023-04-29T00:02:07.937Z,93.42
2023-04-29T00:04:37.474Z,95.73
2023-04-29T00:07:15.525Z,96.99
2023-04-29T00:09:44.640Z,97.67
2023-04-29T00:12:13.678Z,99.31
2023-04-29T00:14:43.534Z,100.00
2023-04-29T00:17:16.291Z,100.00
2023-04-29T00:19:45.477Z,100.00
2023-04-29T00:22:15.888Z,100.00
2023-04-29T00:24:45.449Z,100.00
2023-04-29T00:27:14.874Z,100.00
2023-04-29T00:29:44.042Z,100.00
2023-04-29T00:32:13.311Z,100.00
2023-04-29T00:34:42.839Z,100.00
2023-04-29T00:37:12.379Z,100.00
2023-04-29T00:39:43.352Z,100.00
2023-04-29T00:42:15.173Z,100.00
2023-04-29T00:44:44.349Z,100.00
2023-04-29T00:47:13.649Z,100.00
2023-04-29T00:49:43.339Z,100.00
2023-04-29T00:52:13.043Z,100.00
2023-04-29T00:54:45.638Z,100.00
2023-04-29T00:57:15.780Z,100.00
2023-04-29T00:59:46.179Z,100.00
2023-04-29T01:02:15.474Z,100.00
2023-04-29T01:04:44.873Z,100.00
2023-04-29T01:07:17.975Z,100.00
2023-04-29T01:10:05.533Z,100.00
2023-04-29T01:12:42.039Z,100.00
2023-04-29T01:15:22.740Z,100.00
2023-04-29T01:18:01.589Z,100.00
2023-04-29T01:20:33.532Z,100.00
2023-04-29T01:23:02.727Z,100.00
2023-04-29T01:25:36.537Z,100.00
2023-04-29T01:28:41.254Z,100.00
2023-04-29T01:31:19.344Z,100.00
2023-04-29T01:34:01.536Z,100.00
2023-04-29T01:36:39.781Z,100.00
2023-04-29T01:39:18.238Z,100.00
2023-04-29T01:42:07.895Z,100.00
2023-04-29T01:44:41.368Z,100.00
2023-04-29T01:47:15.251Z,100.00
2023-04-29T01:49:51.154Z,100.00
2023-04-29T01:52:20.742Z,100.00
2023-04-29T01:54:57.919Z,100.00
2023-04-29T01:57:34.517Z,100.00
2023-04-29T02:00:15.362Z,100.00
2023-04-29T02:02:50.030Z,100.00
2023-04-29T02:05:32.512Z,100.00
2023-04-29T02:08:07.643Z,100.00
2023-04-29T02:10:43.793Z,100.00
2023-04-29T02:13:22.206Z,100.00
2023-04-29T02:15:51.926Z,100.00
2023-04-29T02:18:20.934Z,100.00
2023-04-29T02:20:52.036Z,100.00
2023-04-29T02:23:21.105Z,100.00
2023-04-29T02:25:50.425Z,100.00
2023-04-29T02:28:19.662Z,100.00
2023-04-29T02:30:52.933Z,100.00
2023-04-29T02:33:22.800Z,100.00
2023-04-29T02:35:51.965Z,100.00
2023-04-29T02:38:21.271Z,100.00
2023-04-29T02:40:50.581Z,100.00
2023-04-29T02:43:19.897Z,100.00
2023-04-29T02:45:52.494Z,100.00
2023-04-29T02:48:22.190Z,100.00
2023-04-29T02:50:51.794Z,100.00
2023-04-29T02:53:22.822Z,100.00
2023-04-29T02:55:52.201Z,100.00
2023-04-29T02:58:21.241Z,100.00
2023-04-29T03:00:51.624Z,100.00
2023-04-29T03:03:44.996Z,100.00
2023-04-29T03:06:20.104Z,100.00
2023-04-29T03:08:50.652Z,100.00
2023-04-29T03:11:20.682Z,100.00
2023-04-29T03:13:50.465Z,100.00
2023-04-29T03:16:21.583Z,100.00
2023-04-29T03:18:51.050Z,100.00
2023-04-29T03:21:27.175Z,100.00
2023-04-29T03:23:57.994Z,100.00
2023-04-29T03:26:33.341Z,100.00
2023-04-29T03:29:02.561Z,100.00
2023-04-29T03:31:34.205Z,100.00
2023-04-29T03:34:04.432Z,100.00
2023-04-29T03:36:45.099Z,100.00
2023-04-29T03:39:14.319Z,100.00
2023-04-29T03:41:45.075Z,100.00
2023-04-29T03:44:14.375Z,100.00
2023-04-29T03:46:52.402Z,100.00
2023-04-29T03:49:24.316Z,100.00
2023-04-29T03:52:04.146Z,100.00
2023-04-29T03:54:33.493Z,100.00
2023-04-29T03:57:09.288Z,100.00
2023-04-29T03:59:38.203Z,100.00
2023-04-29T04:02:12.086Z,100.00
2023-04-29T04:04:43.429Z,100.00
2023-04-29T04:07:13.508Z,100.00
2023-04-29T04:10:10.135Z,100.00
2023-04-29T04:12:40.878Z,100.00
2023-04-29T04:15:13.441Z,100.00
2023-04-29T04:17:46.893Z,100.00
2023-04-29T04:20:16.955Z,100.00
2023-04-29T04:22:50.784Z,100.00
2023-04-29T04:25:26.588Z,100.00
2023-04-29T04:28:02.363Z,100.00
2023-04-29T04:30:49.038Z,100.00
2023-04-29T04:33:22.864Z,100.00
2023-04-29T04:35:52.168Z,100.00
2023-04-29T04:38:37.889Z,100.00
2023-04-29T04:41:12.595Z,100.00
2023-04-29T04:43:46.518Z,100.00
2023-04-29T04:46:24.227Z,100.00
2023-04-29T04:49:09.442Z,100.00
2023-04-29T04:51:48.173Z,100.00
2023-04-29T04:54:21.306Z,100.00
2023-04-29T04:56:55.073Z,100.00
2023-04-29T04:59:24.112Z,97.15
2023-04-29T05:01:53.942Z,82.62
2023-04-29T05:04:27.028Z,75.80
2023-04-29T05:06:56.313Z,74.56
2023-04-29T05:09:28.126Z,69.00
2023-04-29T05:12:01.649Z,63.95
2023-04-29T05:14:36.553Z,60.21
2023-04-29T05:17:05.988Z,58.42
2023-04-29T05:19:41.037Z,55.91
2023-04-29T05:22:10.294Z,55.11
2023-04-29T05:25:03.093Z,55.05
2023-04-29T05:27:34.685Z,54.71
2023-04-29T05:30:08.744Z,53.43
2023-04-29T05:32:38.296Z,53.31
2023-04-29T05:35:11.479Z,52.72
2023-04-29T05:37:40.950Z,52.57
2023-04-29T05:40:28.783Z,52.39
2023-04-29T05:43:18.083Z,52.15
2023-04-29T05:45:53.618Z,51.87
2023-04-29T05:48:23.747Z,50.96
2023-04-29T05:50:54.603Z,50.23
2023-04-29T05:53:24.256Z,49.68
2023-04-29T05:55:54.583Z,49.45
2023-04-29T05:58:24.233Z,48.95
2023-04-29T06:00:53.683Z,48.38
2023-04-29T06:03:29.109Z,47.95
2023-04-29T06:06:32.172Z,47.63
2023-04-29T06:09:32.802Z,46.75
2023-04-29T06:12:10.891Z,45.88
2023-04-29T06:14:43.626Z,46.45
2023-04-29T06:17:16.058Z,46.53
2023-04-29T06:19:45.892Z,45.99
2023-04-29T06:22:19.385Z,45.79
2023-04-29T06:24:58.141Z,45.31
2023-04-29T06:27:35.936Z,45.11
2023-04-29T06:30:17.593Z,44.96
2023-04-29T06:32:52.695Z,44.70
2023-04-29T06:35:26.514Z,44.93
2023-04-29T06:38:11.430Z,44.30
2023-04-29T06:41:01.463Z,43.89
2023-04-29T06:43:54.212Z,45.40
2023-04-29T06:46:50.025Z,44.83
2023-04-29T06:49:29.424Z,41.51
2023-04-29T06:52:03.136Z,41.70
2023-04-29T06:54:36.402Z,42.35
2023-04-29T06:57:06.039Z,41.21
2023-04-29T06:59:35.252Z,40.20
2023-04-29T07:02:07.154Z,39.65
2023-04-29T07:04:41.193Z,38.77
2023-04-29T07:07:10.514Z,37.79
2023-04-29T07:09:41.090Z,38.32
2023-04-29T07:12:10.182Z,39.19
2023-04-29T07:14:41.113Z,38.94
2023-04-29T07:17:13.371Z,38.53
2023-04-29T07:19:44.371Z,38.13
2023-04-29T07:22:13.915Z,38.13
2023-04-29T07:24:44.613Z,38.40
2023-04-29T07:27:13.986Z,38.16
2023-04-29T07:29:43.236Z,38.14
2023-04-29T07:32:12.862Z,37.76
2023-04-29T07:34:44.060Z,38.32
2023-04-29T07:37:13.947Z,38.28
2023-04-29T07:39:44.449Z,38.17
2023-04-29T07:42:14.025Z,37.83
2023-04-29T07:44:45.693Z,38.91
2023-04-29T07:47:14.944Z,42.85
2023-04-29T07:49:44.167Z,43.20
2023-04-29T07:52:13.991Z,43.37
2023-04-29T07:54:44.727Z,43.42
2023-04-29T07:57:14.861Z,44.15
2023-04-29T07:59:44.221Z,43.70
2023-04-29T08:02:14.250Z,43.01
2023-04-29T08:04:44.461Z,42.14
2023-04-29T08:07:15.764Z,41.94
2023-04-29T08:09:46.447Z,41.59
2023-04-29T08:12:15.674Z,41.79
2023-04-29T08:14:44.969Z,42.57
2023-04-29T08:17:14.156Z,41.62
2023-04-29T08:19:43.322Z,41.03
2023-04-29T08:22:14.216Z,40.87
2023-04-29T08:24:45.493Z,40.58
2023-04-29T08:27:15.452Z,40.71
2023-04-29T08:29:45.673Z,42.21
2023-04-29T08:32:14.688Z,42.00
2023-04-29T08:34:44.757Z,40.84
2023-04-29T08:37:14.905Z,41.28
2023-04-29T08:39:48.108Z,41.03
2023-04-29T08:42:20.837Z,41.18
2023-04-29T08:44:53.958Z,40.91
2023-04-29T08:47:24.339Z,40.28
2023-04-29T08:49:55.346Z,40.49
2023-04-29T08:52:26.947Z,40.90
2023-04-29T08:54:57.807Z,42.10
2023-04-29T08:57:29.700Z,41.46
2023-04-29T09:00:01.305Z,40.89
2023-04-29T09:02:31.107Z,39.97
2023-04-29T09:05:11.314Z,39.93
2023-04-29T09:07:40.863Z,40.74
2023-04-29T09:10:13.277Z,40.90
2023-04-29T09:12:42.749Z,39.99
2023-04-29T09:15:12.493Z,39.94
2023-04-29T09:17:43.351Z,39.87
2023-04-29T09:20:31.209Z,39.79
2023-04-29T09:23:03.867Z,40.00
2023-04-29T09:25:36.500Z,40.21
2023-04-29T09:28:17.535Z,38.79
2023-04-29T09:30:50.806Z,39.20
2023-04-29T09:33:20.508Z,39.35
2023-04-29T09:35:56.548Z,38.51
2023-04-29T09:38:36.916Z,38.38
2023-04-29T09:41:12.368Z,37.04
2023-04-29T09:43:42.536Z,39.05
2023-04-29T09:46:14.638Z,39.08
2023-04-29T09:48:44.080Z,38.25
2023-04-29T09:51:14.970Z,37.53
2023-04-29T09:53:45.468Z,37.42
2023-04-29T09:56:16.057Z,38.24
2023-04-29T09:58:46.012Z,37.10
2023-04-29T10:01:19.418Z,37.49
2023-04-29T10:03:51.160Z,36.20
2023-04-29T10:06:20.521Z,36.84
2023-04-29T10:08:50.617Z,37.71
2023-04-29T10:11:21.857Z,38.02
2023-04-29T10:13:53.176Z,37.42
2023-04-29T10:16:33.337Z,37.70
2023-04-29T10:19:08.941Z,34.99
2023-04-29T10:21:39.274Z,32.36
2023-04-29T10:24:13.614Z,30.91
2023-04-29T10:26:45.768Z,27.68
2023-04-29T10:29:16.922Z,26.78
2023-04-29T10:31:47.914Z,26.37
2023-04-29T10:34:18.817Z,26.45
2023-04-29T10:36:49.184Z,27.03
2023-04-29T10:39:26.314Z,26.29
2023-04-29T10:41:58.172Z,27.18
2023-04-29T10:44:27.257Z,26.31
2023-04-29T10:47:20.371Z,26.48
2023-04-29T10:50:20.178Z,25.00
2023-04-29T10:52:58.132Z,24.50
2023-04-29T10:55:27.530Z,24.78
2023-04-29T10:57:58.284Z,23.55
2023-04-29T11:00:29.359Z,22.55
2023-04-29T11:02:59.828Z,22.30
2023-04-29T11:05:33.454Z,23.90
2023-04-29T11:08:13.529Z,22.40
2023-04-29T11:10:43.239Z,23.23
2023-04-29T11:13:26.076Z,21.72
2023-04-29T11:15:56.107Z,22.65
2023-04-29T11:18:25.062Z,23.58
2023-04-29T11:21:16.534Z,21.67
2023-04-29T11:23:47.995Z,22.53
2023-04-29T11:26:20.587Z,21.55
2023-04-29T11:28:53.174Z,21.14
2023-04-29T11:31:22.392Z,21.00
2023-04-29T11:33:51.820Z,20.76
2023-04-29T11:36:21.099Z,20.10
2023-04-29T11:38:52.896Z,19.80
2023-04-29T11:41:22.954Z,19.52
2023-04-29T11:43:59.040Z,19.94
2023-04-29T11:46:33.070Z,20.00
2023-04-29T11:49:06.042Z,19.66
2023-04-29T11:51:36.085Z,19.48
2023-04-29T11:54:08.095Z,19.81
2023-04-29T11:56:40.883Z,19.32
2023-04-29T11:59:13.680Z,19.04
2023-04-29T12:01:44.493Z,20.17
2023-04-29T12:04:16.654Z,19.17
2023-04-29T12:06:46.642Z,19.78
2023-04-29T12:09:19.711Z,19.67
2023-04-29T12:11:51.136Z,19.52
2023-04-29T12:14:24.831Z,20.51
2023-04-29T12:16:56.106Z,19.54
2023-04-29T12:19:50.061Z,18.21
2023-04-29T12:22:22.855Z,18.45
2023-04-29T12:24:54.833Z,18.69
2023-04-29T12:27:26.376Z,17.79
2023-04-29T12:29:58.948Z,17.23
2023-04-29T12:32:28.188Z,17.20
2023-04-29T12:34:57.307Z,18.48
2023-04-29T12:38:00.943Z,18.39
2023-04-29T12:40:43.968Z,18.64
2023-04-29T12:43:13.704Z,18.98
2023-04-29T12:45:46.118Z,18.59
2023-04-29T12:48:25.411Z,18.24
2023-04-29T12:51:00.134Z,19.05
2023-04-29T12:53:31.394Z,19.95
2023-04-29T12:56:01.034Z,18.59
2023-04-29T12:58:30.851Z,18.35
2023-04-29T13:01:04.503Z,17.42
2023-04-29T13:03:34.444Z,17.39
2023-04-29T13:06:03.807Z,18.96
2023-04-29T13:08:32.898Z,18.30
2023-04-29T13:11:02.759Z,18.39
2023-04-29T13:13:35.993Z,19.03
2023-04-29T13:16:10.587Z,19.11
2023-04-29T13:18:39.834Z,18.67
2023-04-29T13:21:09.102Z,18.83
2023-04-29T13:23:38.710Z,18.82
2023-04-29T13:26:10.526Z,19.10
2023-04-29T13:28:40.029Z,18.12
2023-04-29T13:31:10.423Z,17.30
2023-04-29T13:33:40.304Z,17.75
2023-04-29T13:36:09.414Z,17.66
2023-04-29T13:38:38.850Z,17.46
2023-04-29T13:41:11.017Z,17.06
2023-04-29T13:43:44.069Z,17.98
2023-04-29T13:46:15.235Z,18.44
2023-04-29T13:49:17.405Z,19.91
2023-04-29T13:52:16.959Z,18.18
2023-04-29T13:57:40.172Z,16.70
2023-04-29T13:59:50.661Z,17.69
2023-04-29T14:02:28.416Z,17.25
2023-04-29T14:04:58.176Z,17.26
2023-04-29T14:07:28.228Z,17.49
2023-04-29T14:09:57.219Z,17.22
2023-04-29T14:12:26.471Z,17.47
2023-04-29T14:14:56.221Z,18.33
2023-04-29T14:17:27.842Z,18.63
2023-04-29T14:19:56.859Z,19.18
2023-04-29T14:22:27.653Z,18.12
2023-04-29T14:24:56.817Z,17.66
2023-04-29T14:27:25.973Z,18.12
2023-04-29T14:29:55.011Z,17.73
2023-04-29T14:32:24.209Z,18.74
2023-04-29T14:34:54.805Z,18.98
2023-04-29T14:37:23.996Z,18.73
2023-04-29T14:39:53.083Z,18.18
2023-04-29T14:42:22.298Z,18.05
2023-04-29T14:44:52.419Z,17.62
2023-04-29T14:47:22.037Z,18.14
2023-04-29T14:49:51.546Z,18.27
2023-04-29T14:52:21.949Z,17.57
2023-04-29T14:54:51.546Z,17.69
2023-04-29T14:57:21.420Z,17.47
2023-04-29T14:59:51.134Z,18.77
2023-04-29T15:02:20.164Z,17.31
2023-04-29T15:04:49.633Z,16.91
2023-04-29T15:07:19.206Z,17.30
2023-04-29T15:09:50.619Z,17.70
2023-04-29T15:12:21.222Z,16.84
2023-04-29T15:14:50.783Z,17.43
2023-04-29T15:17:19.932Z,17.23
2023-04-29T15:19:49.867Z,17.56
2023-04-29T15:22:19.187Z,17.18
2023-04-29T15:24:49.943Z,18.02
2023-04-29T15:27:19.244Z,19.03
2023-04-29T15:29:48.587Z,18.90
2023-04-29T15:32:17.962Z,18.76
2023-04-29T15:34:47.082Z,18.10
2023-04-29T15:37:16.304Z,19.13
2023-04-29T15:39:45.309Z,18.45
2023-04-29T15:42:15.943Z,18.60
2023-04-29T15:44:44.874Z,22.22
2023-04-29T15:47:14.077Z,23.98
2023-04-29T15:49:43.712Z,25.48
2023-04-29T15:52:12.827Z,25.49
2023-04-29T15:54:42.302Z,26.26
2023-04-29T15:57:11.857Z,27.17
2023-04-29T15:59:42.234Z,27.71
2023-04-29T16:02:11.993Z,27.84
2023-04-29T16:04:41.510Z,28.21
2023-04-29T16:07:11.474Z,28.41
2023-04-29T16:09:40.631Z,28.58
2023-04-29T16:12:11.687Z,29.28
2023-04-29T16:14:42.239Z,29.84
2023-04-29T16:17:12.565Z,29.71
2023-04-29T16:19:41.517Z,30.34
2023-04-29T16:22:10.757Z,30.68
2023-04-29T16:24:42.724Z,30.97
2023-04-29T16:27:15.230Z,30.72
2023-04-29T16:29:45.614Z,31.29
2023-04-29T16:32:14.919Z,31.70
2023-04-29T16:34:44.068Z,31.13
2023-04-29T16:37:13.774Z,31.55
2023-04-29T16:40:25.605Z,30.95
2023-04-29T16:42:56.919Z,31.50
2023-04-29T16:45:27.830Z,32.45
2023-04-29T16:47:57.507Z,32.45
2023-04-29T16:50:27.096Z,33.11
2023-04-29T16:52:56.072Z,33.39
2023-04-29T16:55:25.755Z,33.87
2023-04-29T16:57:54.831Z,33.75
2023-04-29T17:00:24.458Z,33.37
2023-04-29T17:02:58.541Z,33.41
2023-04-29T17:05:28.082Z,33.87
2023-04-29T17:07:57.267Z,35.15
2023-04-29T17:10:26.468Z,35.15
2023-04-29T17:13:03.355Z,34.95
2023-04-29T17:15:52.980Z,34.63
2023-04-29T17:18:23.702Z,34.72
2023-04-29T17:20:53.163Z,35.82
2023-04-29T17:23:22.622Z,36.48
2023-04-29T17:25:51.868Z,37.35
2023-04-29T17:28:21.426Z,38.09
2023-04-29T17:30:51.446Z,37.99
2023-04-29T17:33:20.727Z,36.04
2023-04-29T17:35:51.325Z,36.65
2023-04-29T17:38:20.823Z,37.31
2023-04-29T17:40:53.299Z,36.88
2023-04-29T17:43:26.665Z,36.78
2023-04-29T17:45:55.819Z,37.92
2023-04-29T17:48:25.514Z,37.34
2023-04-29T17:50:56.418Z,37.22
2023-04-29T17:53:26.347Z,38.18
2023-04-29T17:55:56.017Z,38.68
2023-04-29T17:58:27.878Z,38.51
2023-04-29T18:00:59.609Z,40.27
2023-04-29T18:03:34.826Z,39.99
2023-04-29T18:06:09.012Z,41.05
2023-04-29T18:08:38.931Z,40.77
2023-04-29T18:11:09.261Z,41.74
2023-04-29T18:13:41.159Z,42.39
2023-04-29T18:16:13.060Z,41.47
2023-04-29T18:18:43.377Z,41.62
2023-04-29T18:21:14.257Z,42.85
2023-04-29T18:23:45.889Z,42.20
2023-04-29T18:26:15.405Z,42.31
2023-04-29T18:28:46.414Z,41.16
2023-04-29T18:31:17.061Z,41.39
2023-04-29T18:33:46.605Z,42.48
2023-04-29T18:36:17.690Z,42.55
2023-04-29T18:38:47.154Z,42.09
2023-04-29T18:41:25.120Z,42.59
2023-04-29T18:43:55.263Z,43.49
2023-04-29T18:46:25.274Z,43.35
2023-04-29T18:48:54.532Z,44.39
2023-04-29T18:51:25.664Z,44.43
2023-04-29T18:53:58.811Z,44.67
2023-04-29T18:56:33.433Z,44.66
2023-04-29T18:59:04.536Z,45.57
2023-04-29T19:01:39.596Z,45.82
2023-04-29T19:04:12.022Z,46.25
2023-04-29T19:06:50.955Z,46.65
2023-04-29T19:09:21.164Z,47.41
2023-04-29T19:11:51.019Z,47.72
2023-04-29T19:14:20.919Z,48.59
2023-04-29T19:16:50.700Z,48.97
2023-04-29T19:19:20.718Z,49.41
2023-04-29T19:21:53.909Z,49.92
2023-04-29T19:24:23.639Z,51.52
2023-04-29T19:26:56.792Z,52.20
2023-04-29T19:29:26.921Z,53.53
2023-04-29T19:32:00.817Z,53.81
2023-04-29T19:34:33.631Z,53.30
2023-04-29T19:37:06.621Z,52.83
2023-04-29T19:39:36.193Z,52.05
2023-04-29T19:42:05.746Z,53.38
2023-04-29T19:44:35.665Z,53.27
2023-04-29T19:47:05.151Z,54.29
2023-04-29T19:49:34.648Z,55.36
2023-04-29T19:52:06.908Z,55.71
2023-04-29T19:54:37.086Z,55.69
2023-04-29T19:57:06.518Z,55.00
2023-04-29T19:59:36.016Z,54.96
2023-04-29T20:02:05.760Z,56.16
2023-04-29T20:04:46.255Z,57.58
2023-04-29T20:07:16.941Z,58.96
2023-04-29T20:09:46.272Z,59.22
2023-04-29T20:12:15.342Z,58.81
2023-04-29T20:14:44.991Z,59.94
2023-04-29T20:17:17.571Z,59.97
2023-04-29T20:19:49.429Z,60.70
2023-04-29T20:22:20.011Z,60.06
2023-04-29T20:24:49.821Z,61.43
2023-04-29T20:27:19.405Z,60.43
2023-04-29T20:29:48.623Z,65.37
2023-04-29T20:32:18.491Z,68.65
2023-04-29T20:34:47.830Z,74.47
2023-04-29T20:37:17.729Z,68.61
2023-04-29T20:39:51.689Z,67.73
2023-04-29T20:42:20.922Z,65.79
2023-04-29T20:44:49.845Z,64.99
2023-04-29T20:47:23.006Z,62.55
2023-04-29T20:49:52.549Z,61.36
2023-04-29T20:52:21.995Z,61.78
2023-04-29T20:54:53.047Z,64.07
2023-04-29T20:57:22.147Z,63.74
2023-04-29T20:59:53.437Z,62.58
2023-04-29T21:02:22.776Z,60.66
2023-04-29T21:04:51.914Z,64.08
2023-04-29T21:07:21.251Z,61.36
2023-04-29T21:09:50.689Z,60.88
2023-04-29T21:12:21.572Z,62.60
2023-04-29T21:14:50.783Z,65.40
2023-04-29T21:17:20.014Z,62.57
2023-04-29T21:19:49.653Z,62.95
2023-04-29T21:22:18.830Z,65.79
2023-04-29T21:24:48.333Z,69.40
2023-04-29T21:27:18.252Z,74.03
2023-04-29T21:29:51.303Z,71.91
2023-04-29T21:32:22.195Z,71.92
2023-04-29T21:34:51.566Z,67.96
2023-04-29T21:37:20.962Z,66.08
2023-04-29T21:39:50.843Z,65.21
2023-04-29T21:42:23.261Z,65.92
2023-04-29T21:44:53.979Z,67.44
2023-04-29T21:47:23.181Z,70.92
2023-04-29T21:49:54.419Z,70.31
2023-04-29T21:52:24.003Z,69.65
2023-04-29T21:54:53.306Z,71.98
2023-04-29T21:57:29.220Z,72.52
2023-04-29T22:00:28.765Z,76.26
2023-04-29T22:02:58.282Z,74.58
2023-04-29T22:05:27.496Z,76.02
2023-04-29T22:07:58.609Z,80.00
2023-04-29T22:10:28.254Z,77.83
2023-04-29T22:13:00.517Z,80.73
2023-04-29T22:15:31.156Z,78.83
2023-04-29T22:18:00.232Z,85.96
2023-04-29T22:20:29.564Z,80.61
2023-04-29T22:22:59.659Z,85.60
2023-04-29T22:25:28.789Z,86.93
2023-04-29T22:27:58.047Z,94.53
2023-04-29T22:30:27.375Z,92.47
2023-04-29T22:32:57.918Z,95.00
2023-04-29T22:35:27.187Z,95.34
2023-04-29T22:37:56.303Z,98.62
2023-04-29T22:40:25.501Z,100.00
2023-04-29T22:42:54.527Z,99.76
2023-04-29T22:45:23.761Z,98.74
2023-04-29T22:47:53.506Z,100.00
2023-04-29T22:50:24.236Z,100.00
2023-04-29T22:52:53.605Z,100.00
2023-04-29T22:55:22.839Z,100.00
2023-04-29T22:57:52.414Z,100.00
2023-04-29T23:00:22.416Z,100.00
2023-04-29T23:02:51.768Z,100.00
2023-04-29T23:05:21.128Z,100.00
2023-04-29T23:07:51.689Z,100.00
2023-04-29T23:10:20.807Z,100.00
2023-04-29T23:12:49.974Z,100.00
2023-04-29T23:15:22.939Z,100.00
2023-04-29T23:17:52.265Z,100.00
2023-04-29T23:20:21.298Z,100.00
2023-04-29T23:22:51.824Z,100.00
2023-04-29T23:25:21.321Z,100.00
2023-04-29T23:27:50.531Z,100.00
2023-04-29T23:30:22.605Z,100.00
2023-04-29T23:32:52.192Z,100.00
2023-04-29T23:35:21.721Z,100.00
2023-04-29T23:37:58.126Z,100.00
2023-04-29T23:40:27.562Z,100.00
2023-04-29T23:42:57.034Z,100.00
2023-04-29T23:45:26.501Z,100.00
2023-04-29T23:47:55.660Z,100.00
2023-04-29T23:50:24.795Z,100.00
2023-04-29T23:52:55.450Z,100.00
2023-04-29T23:55:24.731Z,100.00
2023-04-29T23:57:54.001Z,100.00
